Time;durP1;ratioP1;P1;durP2;ratioP2;P2;SDS_P1;SDS_P2;PMS_P1;PMS_P2;Temp;Humidity;BMP_temperature;BMP_pressure;BME280_temperature;BME280_humidity;BME280_pressure;Samples;Min_cycle;Max_cycle;Signal;HPM_P1;HPM_P2
2021/05/02 00:02:09;;;;;;;18.60;9.93;;;8.60;99.90;;;;;;5121018;27;20062;-50
2021/05/02 00:04:35;;;;;;;17.83;10.10;;;8.70;99.90;;;;;;5117593;27;20504;-53
2021/05/02 00:07:02;;;;;;;20.20;10.82;;;8.60;99.90;;;;;;5117712;27;20055;-51
2021/05/02 00:09:30;;;;;;;19.40;11.43;;;8.60;99.90;;;;;;5121887;27;20027;-50
2021/05/02 00:11:56;;;;;;;20.75;11.55;;;8.60;99.90;;;;;;5120684;27;20031;-49
2021/05/02 00:14:21;;;;;;;20.65;10.95;;;8.50;99.90;;;;;;5123327;27;20369;-51
2021/05/02 00:16:49;;;;;;;18.63;11.13;;;8.50;99.90;;;;;;5106812;28;20049;-50
2021/05/02 00:19:15;;;;;;;17.42;11.18;;;8.40;99.90;;;;;;5112417;28;20023;-51
2021/05/02 00:21:41;;;;;;;16.65;11.05;;;8.40;99.90;;;;;;5119016;27;20397;-49
2021/05/02 00:24:08;;;;;;;17.27;11.05;;;8.30;99.90;;;;;;5094140;28;20137;-52
2021/05/02 00:26:33;;;;;;;19.42;10.75;;;8.30;99.90;;;;;;5118591;27;20027;-49
2021/05/02 00:28:59;;;;;;;16.80;11.13;;;8.20;99.90;;;;;;5127568;28;20035;-50
2021/05/02 00:31:25;;;;;;;19.50;11.52;;;8.20;99.90;;;;;;5122594;28;20035;-49
2021/05/02 00:33:51;;;;;;;18.48;12.05;;;8.20;99.90;;;;;;5130979;27;20104;-51
2021/05/02 00:36:17;;;;;;;16.88;11.38;;;8.20;99.90;;;;;;5123212;27;20092;-53
2021/05/02 00:38:43;;;;;;;23.05;12.63;;;8.10;99.90;;;;;;5122034;27;20026;-54
2021/05/02 00:41:16;;;;;;;27.15;13.02;;;8.10;99.90;;;;;;5124286;27;20057;-53
2021/05/02 00:43:54;;;;;;;25.42;13.52;;;8.10;99.90;;;;;;5132341;27;20083;-53
2021/05/02 00:46:34;;;;;;;22.17;14.38;;;8.00;99.90;;;;;;5128046;27;20512;-52
2021/05/02 00:49:15;;;;;;;28.27;15.07;;;7.90;99.90;;;;;;5131725;27;20104;-49
2021/05/02 00:51:45;;;;;;;27.08;13.88;;;7.90;99.90;;;;;;5132956;27;20066;-50
2021/05/02 00:54:15;;;;;;;21.55;13.00;;;7.90;99.90;;;;;;5135574;27;20029;-52
2021/05/02 00:56:57;;;;;;;22.33;13.40;;;7.80;99.90;;;;;;5135284;27;20028;-50
2021/05/02 00:59:34;;;;;;;22.83;14.23;;;7.80;99.90;;;;;;5133404;27;20027;-52
2021/05/02 01:02:04;;;;;;;28.38;14.52;;;7.90;99.90;;;;;;5126954;27;20448;-51
2021/05/02 01:04:31;;;;;;;25.83;14.73;;;7.80;99.90;;;;;;5126937;27;20114;-50
2021/05/02 01:07:03;;;;;;;21.75;13.68;;;7.70;99.90;;;;;;5135395;27;20019;-50
2021/05/02 01:09:30;;;;;;;24.13;15.52;;;7.70;99.90;;;;;;5135748;27;20023;-53
2021/05/02 01:12:01;;;;;;;27.10;15.48;;;7.60;99.90;;;;;;5121420;27;20446;-52
2021/05/02 01:14:30;;;;;;;24.38;14.45;;;7.70;99.90;;;;;;5126425;27;20442;-53
2021/05/02 01:16:57;;;;;;;25.00;15.77;;;7.60;99.90;;;;;;5128297;27;20404;-52
2021/05/02 01:19:26;;;;;;;31.20;15.70;;;7.60;99.90;;;;;;5125154;27;20482;-52
2021/05/02 01:21:52;;;;;;;25.95;14.15;;;7.70;99.90;;;;;;5118742;27;20031;-50
2021/05/02 01:24:18;;;;;;;27.15;15.38;;;7.60;99.90;;;;;;5118495;27;20027;-52
2021/05/02 01:26:47;;;;;;;24.20;15.50;;;7.60;99.90;;;;;;5117334;27;20425;-53
2021/05/02 01:29:14;;;;;;;33.28;16.30;;;7.70;99.90;;;;;;5128263;27;20019;-49
2021/05/02 01:31:41;;;;;;;27.45;15.60;;;7.60;99.90;;;;;;5119459;27;20024;-51
2021/05/02 01:34:07;;;;;;;26.50;16.58;;;7.50;99.90;;;;;;5130240;27;20023;-54
2021/05/02 01:36:33;;;;;;;26.08;15.82;;;7.50;99.90;;;;;;5128564;27;20046;-49
2021/05/02 01:39:03;;;;;;;29.90;16.98;;;7.40;99.90;;;;;;5139338;27;20030;-50
2021/05/02 01:41:28;;;;;;;30.40;16.17;;;7.20;99.90;;;;;;5130290;27;20030;-52
2021/05/02 01:43:54;;;;;;;31.65;18.13;;;7.20;99.90;;;;;;5126999;27;20028;-53
2021/05/02 01:46:33;;;;;;;26.10;17.20;;;7.20;99.90;;;;;;5126147;27;20456;-51
2021/05/02 01:49:00;;;;;;;29.48;18.23;;;7.10;99.90;;;;;;5121916;27;20031;-52
2021/05/02 01:51:26;;;;;;;28.15;16.75;;;7.00;99.90;;;;;;5117702;27;20070;-52
2021/05/02 01:53:52;;;;;;;31.45;20.08;;;7.00;99.90;;;;;;5118057;27;20105;-49
2021/05/02 01:56:19;;;;;;;36.75;19.08;;;6.90;99.90;;;;;;5117728;27;20036;-50
2021/05/02 01:58:45;;;;;;;28.65;17.75;;;6.90;99.90;;;;;;5128033;27;20035;-52
2021/05/02 02:01:15;;;;;;;35.20;18.63;;;6.90;99.90;;;;;;5129652;27;20102;-50
2021/05/02 02:03:43;;;;;;;35.45;19.25;;;7.00;99.90;;;;;;5147813;22;20408;-57
2021/05/02 02:06:11;;;;;;;30.25;18.02;;;7.10;99.90;;;;;;5134479;27;20057;-57
2021/05/02 02:08:37;;;;;;;31.98;18.17;;;7.10;99.90;;;;;;5133146;27;20031;-55
2021/05/02 02:11:03;;;;;;;36.10;18.83;;;7.10;99.90;;;;;;5129001;27;20115;-53
2021/05/02 02:13:29;;;;;;;29.10;18.15;;;7.10;99.90;;;;;;5129838;27;20124;-58
2021/05/02 02:15:55;;;;;;;32.03;18.55;;;7.10;99.90;;;;;;5121171;27;20028;-56
2021/05/02 02:18:21;;;;;;;30.80;17.70;;;7.00;99.90;;;;;;5124099;27;20484;-57
2021/05/02 02:20:51;;;;;;;36.47;19.67;;;6.90;99.90;;;;;;5119046;27;20031;-57
2021/05/02 02:23:28;;;;;;;33.67;18.73;;;6.80;99.90;;;;;;5112546;27;20035;-55
2021/05/02 02:25:54;;;;;;;34.50;19.15;;;6.90;99.90;;;;;;5109910;27;20115;-56
2021/05/02 02:28:21;;;;;;;30.58;19.55;;;6.90;99.90;;;;;;5114429;27;20034;-57
2021/05/02 02:30:56;;;;;;;31.67;20.15;;;6.80;99.90;;;;;;5111423;27;20050;-54
2021/05/02 02:33:23;;;;;;;;;;;6.80;99.90;;;;;;5112398;27;20082;-56
2021/05/02 02:35:53;;;;;;;35.35;18.38;;;6.80;99.90;;;;;;5111136;27;19915;-56
2021/05/02 02:38:22;;;;;;;34.08;20.10;;;6.80;99.90;;;;;;5110267;27;20105;-56
2021/05/02 02:40:50;;;;;;;35.60;20.33;;;6.80;99.90;;;;;;5103917;27;20408;-55
2021/05/02 02:43:30;;;;;;;38.13;20.10;;;6.80;99.90;;;;;;5110877;27;20454;-54
2021/05/02 02:45:58;;;;;;;37.22;20.55;;;6.80;99.90;;;;;;5106572;27;20350;-58
2021/05/02 02:48:27;;;;;;;37.30;19.25;;;6.70;99.90;;;;;;5110634;28;20565;-57
2021/05/02 02:50:56;;;;;;;34.58;20.85;;;6.60;99.90;;;;;;5103070;27;20056;-56
2021/05/02 02:53:23;;;;;;;33.55;20.58;;;6.60;99.90;;;;;;5102114;27;20023;-55
2021/05/02 02:56:01;;;;;;;39.83;22.15;;;6.60;99.90;;;;;;5101923;27;20130;-56
2021/05/02 02:58:33;;;;;;;39.00;22.08;;;6.70;99.90;;;;;;5111963;27;20390;-55
2021/05/02 03:00:59;;;;;;;37.13;21.92;;;6.60;99.90;;;;;;5115229;27;20446;-56
2021/05/02 03:03:26;;;;;;;39.25;22.52;;;6.60;99.90;;;;;;5112543;27;20027;-55
2021/05/02 03:05:54;;;;;;;38.85;22.10;;;6.70;99.90;;;;;;5110167;27;20442;-55
2021/05/02 03:08:24;;;;;;;40.42;23.15;;;6.70;99.90;;;;;;5107898;27;20044;-55
2021/05/02 03:10:51;;;;;;;41.50;20.73;;;6.70;99.90;;;;;;5107441;28;20051;-55
2021/05/02 03:13:17;;;;;;;40.58;22.98;;;6.80;99.90;;;;;;5113994;27;20035;-56
2021/05/02 03:15:43;;;;;;;45.45;22.88;;;6.80;99.90;;;;;;5115340;27;20019;-58
2021/05/02 03:18:26;;;;;;;40.95;22.83;;;6.90;99.90;;;;;;5117589;27;20046;-56
2021/05/02 03:21:06;;;;;;;37.05;21.60;;;6.70;99.90;;;;;;5108652;27;20035;-55
2021/05/02 03:23:39;;;;;;;44.38;24.00;;;6.70;99.90;;;;;;5102133;27;20126;-56
2021/05/02 03:26:07;;;;;;;42.67;22.80;;;6.70;99.90;;;;;;5102465;28;20051;-57
2021/05/02 03:28:36;;;;;;;37.95;22.55;;;6.70;99.90;;;;;;5107666;28;20114;-57
2021/05/02 03:31:05;;;;;;;40.10;22.52;;;6.80;99.90;;;;;;5111529;27;20028;-58
2021/05/02 03:33:34;;;;;;;48.22;25.08;;;6.90;99.90;;;;;;5120994;27;20091;-57
2021/05/02 03:36:05;;;;;;;52.20;26.40;;;6.90;99.90;;;;;;5107794;28;20027;-57
2021/05/02 03:38:49;;;;;;;46.55;23.35;;;6.90;99.90;;;;;;5085569;28;20036;-57
2021/05/02 03:41:16;;;;;;;44.85;24.45;;;7.00;99.90;;;;;;5100969;28;20500;-55
2021/05/02 03:43:42;;;;;;;39.80;22.92;;;7.10;99.90;;;;;;5113778;28;20034;-57
2021/05/02 03:46:24;;;;;;;45.30;24.20;;;7.10;99.90;;;;;;5119424;28;20131;-56
2021/05/02 03:48:58;;;;;;;51.65;25.60;;;7.20;99.90;;;;;;5120987;28;20636;-57
2021/05/02 03:51:25;;;;;;;44.72;24.30;;;7.10;99.90;;;;;;5106052;28;20024;-54
2021/05/02 03:53:51;;;;;;;46.25;23.75;;;7.20;99.90;;;;;;5101952;28;20043;-58
2021/05/02 03:56:32;;;;;;;49.17;23.83;;;7.20;99.90;;;;;;5103516;28;20030;-57
2021/05/02 03:59:08;;;;;;;37.45;22.73;;;7.20;99.90;;;;;;5111065;28;20087;-57
2021/05/02 04:01:33;;;;;;;41.80;22.42;;;7.30;99.90;;;;;;5122722;28;20362;-57
2021/05/02 04:03:59;;;;;;;43.42;23.63;;;7.30;99.90;;;;;;5117254;27;20051;-55
2021/05/02 04:06:26;;;;;;;40.00;23.92;;;7.40;99.90;;;;;;5107611;28;20108;-57
2021/05/02 04:08:52;;;;;;;37.30;21.98;;;7.40;99.90;;;;;;5102601;28;20031;-53
2021/05/02 04:11:17;;;;;;;48.88;25.73;;;7.40;99.90;;;;;;5107859;27;20403;-55
2021/05/02 04:13:43;;;;;;;45.20;25.13;;;7.40;99.90;;;;;;5116944;27;20480;-54
2021/05/02 04:16:12;;;;;;;47.05;25.65;;;7.30;99.90;;;;;;5101890;27;20028;-57
2021/05/02 04:18:37;;;;;;;47.42;25.27;;;7.30;99.90;;;;;;5108180;28;20035;-54
2021/05/02 04:21:03;;;;;;;48.85;26.30;;;7.20;99.90;;;;;;5102878;27;20108;-54
2021/05/02 04:23:31;;;;;;;42.35;24.25;;;7.20;99.90;;;;;;5102809;28;20035;-57
2021/05/02 04:25:57;;;;;;;44.67;25.08;;;7.20;99.90;;;;;;5105242;28;20035;-57
2021/05/02 04:28:22;;;;;;;47.78;24.63;;;7.20;99.90;;;;;;5108032;28;20023;-59
2021/05/02 04:30:48;;;;;;;52.28;25.75;;;7.30;99.90;;;;;;5106588;28;20028;-57
2021/05/02 04:33:13;;;;;;;47.22;25.08;;;7.30;99.90;;;;;;5099169;28;20024;-57
2021/05/02 04:35:39;;;;;;;42.53;24.60;;;7.30;99.90;;;;;;5106844;28;20323;-55
2021/05/02 04:38:04;;;;;;;41.70;22.70;;;7.30;99.90;;;;;;5104674;28;20508;-57
2021/05/02 04:40:30;;;;;;;42.80;24.23;;;7.30;99.90;;;;;;5106029;28;20039;-57
2021/05/02 04:42:55;;;;;;;47.67;24.98;;;7.40;99.90;;;;;;5104035;28;20054;-57
2021/05/02 04:45:21;;;;;;;44.10;24.42;;;7.30;99.90;;;;;;5101740;28;20039;-55
2021/05/02 04:47:46;;;;;;;45.55;24.20;;;7.30;99.90;;;;;;5104437;28;20031;-57
2021/05/02 04:50:12;;;;;;;48.70;23.83;;;7.40;99.90;;;;;;5108061;28;20027;-54
2021/05/02 04:52:39;;;;;;;41.70;23.17;;;7.40;99.90;;;;;;5102948;28;20051;-57
2021/05/02 04:55:05;;;;;;;40.20;22.00;;;7.40;99.90;;;;;;5101788;28;20107;-56
2021/05/02 04:57:31;;;;;;;37.72;21.58;;;7.40;99.90;;;;;;5107535;28;20118;-57
2021/05/02 04:59:57;;;;;;;43.38;21.23;;;7.40;99.90;;;;;;5111302;28;20069;-56
2021/05/02 05:02:22;;;;;;;39.47;21.05;;;7.30;99.90;;;;;;5108903;28;20500;-57
2021/05/02 05:04:48;;;;;;;36.80;21.08;;;7.40;99.90;;;;;;5106562;27;20400;-54
2021/05/02 05:07:13;;;;;;;38.67;21.48;;;7.40;99.90;;;;;;5105826;28;20043;-56
2021/05/02 05:09:39;;;;;;;35.95;19.55;;;7.50;99.90;;;;;;5103534;28;20099;-59
2021/05/02 05:12:05;;;;;;;37.78;20.63;;;7.50;99.90;;;;;;5105314;28;20019;-56
2021/05/02 05:14:30;;;;;;;37.50;18.50;;;7.50;99.90;;;;;;5107491;27;20036;-56
2021/05/02 05:16:56;;;;;;;35.78;19.45;;;7.50;99.90;;;;;;5097967;28;20466;-56
2021/05/02 05:19:21;;;;;;;34.28;19.08;;;7.60;99.90;;;;;;5103194;28;20032;-54
2021/05/02 05:21:47;;;;;;;32.33;17.15;;;7.60;99.90;;;;;;5102558;28;20470;-56
2021/05/02 05:24:12;;;;;;;31.60;17.17;;;7.60;99.90;;;;;;5103788;28;20024;-56
2021/05/02 05:26:38;;;;;;;24.10;14.63;;;7.60;99.90;;;;;;5103944;28;20385;-55
2021/05/02 05:29:03;;;;;;;27.83;14.32;;;7.60;99.90;;;;;;5105729;28;20112;-54
2021/05/02 05:31:29;;;;;;;27.02;14.75;;;7.70;99.90;;;;;;5097343;28;20456;-56
2021/05/02 05:33:54;;;;;;;28.08;15.63;;;7.70;99.90;;;;;;5107406;28;20494;-54
2021/05/02 05:36:20;;;;;;;26.50;15.20;;;7.70;99.90;;;;;;5104108;28;20104;-56
2021/05/02 05:38:47;;;;;;;32.65;15.68;;;7.60;99.90;;;;;;5104545;28;20050;-55
2021/05/02 05:41:13;;;;;;;27.48;14.30;;;7.60;99.90;;;;;;5101907;28;21619;-53
2021/05/02 05:43:38;;;;;;;29.52;14.90;;;7.60;99.90;;;;;;5103867;28;20020;-55
2021/05/02 05:46:04;;;;;;;29.25;13.55;;;7.60;99.90;;;;;;5098618;28;20502;-57
2021/05/02 05:48:31;;;;;;;27.88;14.60;;;7.70;99.90;;;;;;5097957;28;20076;-56
2021/05/02 05:50:56;;;;;;;22.20;13.27;;;7.70;99.90;;;;;;5100332;28;20385;-54
2021/05/02 05:53:22;;;;;;;26.33;13.50;;;7.70;99.90;;;;;;5102263;27;20034;-59
2021/05/02 05:55:48;;;;;;;24.92;10.95;;;7.80;99.90;;;;;;5100669;28;20032;-53
2021/05/02 05:58:13;;;;;;;25.15;11.48;;;7.80;99.90;;;;;;5101859;28;20047;-56
2021/05/02 06:00:39;;;;;;;29.13;12.13;;;7.70;99.90;;;;;;5097401;28;20115;-57
2021/05/02 06:03:04;;;;;;;22.17;10.80;;;7.70;99.90;;;;;;5102047;28;20381;-56
2021/05/02 06:05:30;;;;;;;28.38;11.95;;;7.80;99.90;;;;;;5101399;28;20481;-56
2021/05/02 06:07:56;;;;;;;18.08;10.35;;;7.80;99.90;;;;;;5103457;28;20034;-55
2021/05/02 06:10:21;;;;;;;29.08;11.18;;;7.80;99.90;;;;;;5102696;28;20031;-55
2021/05/02 06:12:47;;;;;;;24.73;10.20;;;7.90;99.90;;;;;;5102621;28;20046;-55
2021/05/02 06:15:13;;;;;;;22.58;10.38;;;7.90;99.90;;;;;;5102483;28;20023;-56
2021/05/02 06:17:39;;;;;;;19.52;9.68;;;7.90;99.90;;;;;;5102395;28;20544;-55
2021/05/02 06:20:06;;;;;;;23.00;8.45;;;8.00;99.90;;;;;;5101822;28;20058;-56
2021/05/02 06:22:31;;;;;;;18.90;9.05;;;8.00;99.90;;;;;;5083232;28;20047;-57
2021/05/02 06:24:57;;;;;;;19.20;8.95;;;7.90;99.90;;;;;;5103428;28;20030;-57
2021/05/02 06:27:23;;;;;;;16.38;7.45;;;7.90;99.90;;;;;;5101562;28;20135;-55
2021/05/02 06:29:48;;;;;;;16.58;8.35;;;7.80;99.90;;;;;;5074139;27;20114;-57
2021/05/02 06:32:14;;;;;;;13.48;8.00;;;7.80;99.90;;;;;;5091542;28;20086;-57
2021/05/02 06:34:39;;;;;;;13.27;7.55;;;7.70;99.90;;;;;;5102602;28;20059;-55
2021/05/02 06:37:05;;;;;;;19.85;6.85;;;7.70;99.90;;;;;;5100880;28;20032;-54
2021/05/02 06:39:30;;;;;;;16.85;7.28;;;7.70;99.90;;;;;;5103712;28;20066;-57
2021/05/02 06:41:56;;;;;;;13.55;7.65;;;7.70;99.90;;;;;;5098194;28;20503;-56
2021/05/02 06:44:22;;;;;;;13.02;7.05;;;7.70;99.90;;;;;;5095822;28;20024;-56
2021/05/02 06:46:47;;;;;;;17.60;7.38;;;7.70;99.90;;;;;;5105865;28;20020;-56
2021/05/02 06:49:13;;;;;;;16.02;6.97;;;7.80;99.90;;;;;;5095753;28;20020;-57
2021/05/02 06:51:39;;;;;;;13.68;7.05;;;7.80;99.90;;;;;;5096377;28;20032;-55
2021/05/02 06:54:06;;;;;;;14.70;7.10;;;7.80;99.90;;;;;;5103559;28;20077;-55
2021/05/02 06:56:32;;;;;;;17.42;7.30;;;7.90;99.90;;;;;;5095828;28;20024;-55
2021/05/02 06:58:57;;;;;;;15.23;7.68;;;7.90;99.90;;;;;;5099612;28;20022;-55
2021/05/02 07:01:23;;;;;;;23.42;7.00;;;7.90;99.90;;;;;;5099741;27;20094;-55
2021/05/02 07:03:49;;;;;;;19.80;7.78;;;8.00;99.90;;;;;;5104859;28;20027;-56
2021/05/02 07:06:15;;;;;;;10.50;6.47;;;8.00;99.90;;;;;;5106734;28;20024;-57
2021/05/02 07:08:41;;;;;;;14.30;6.50;;;8.00;99.90;;;;;;5079698;28;20035;-57
2021/05/02 07:11:06;;;;;;;16.63;6.50;;;8.00;99.90;;;;;;5097711;28;20026;-55
2021/05/02 07:13:34;;;;;;;14.18;6.45;;;8.10;99.90;;;;;;5099221;28;20474;-55
2021/05/02 07:15:59;;;;;;;15.45;6.65;;;8.30;99.90;;;;;;5099134;28;20485;-57
2021/05/02 07:18:30;;;;;;;15.80;6.60;;;8.40;99.90;;;;;;5103317;28;20026;-56
2021/05/02 07:20:56;;;;;;;17.15;4.95;;;8.50;99.90;;;;;;5097665;28;20020;-55
2021/05/02 07:23:22;;;;;;;12.70;5.40;;;8.60;99.90;;;;;;5102650;28;20050;-56
2021/05/02 07:25:48;;;;;;;12.38;5.40;;;8.60;99.90;;;;;;5094885;28;20405;-54
2021/05/02 07:28:13;;;;;;;13.57;5.57;;;8.70;99.90;;;;;;5094224;28;20020;-56
2021/05/02 07:30:39;;;;;;;13.10;4.60;;;8.70;99.90;;;;;;5095645;28;20443;-57
2021/05/02 07:33:05;;;;;;;9.32;4.22;;;8.60;99.90;;;;;;5095482;28;20431;-56
2021/05/02 07:35:30;;;;;;;12.07;4.55;;;8.50;99.90;;;;;;5102425;28;20031;-57
2021/05/02 07:37:57;;;;;;;8.50;3.67;;;8.60;99.90;;;;;;5098821;28;20409;-56
2021/05/02 07:40:22;;;;;;;11.52;3.63;;;8.60;99.90;;;;;;5098214;28;20023;-58
2021/05/02 07:42:48;;;;;;;14.85;4.25;;;8.70;99.90;;;;;;5104155;28;20100;-56
2021/05/02 07:45:14;;;;;;;18.13;3.67;;;8.70;99.90;;;;;;5104384;28;20038;-56
2021/05/02 07:47:40;;;;;;;11.80;3.95;;;8.70;99.90;;;;;;5103406;27;20550;-56
2021/05/02 07:50:07;;;;;;;11.68;4.05;;;8.80;99.90;;;;;;5102774;28;20019;-56
2021/05/02 07:52:33;;;;;;;8.18;3.83;;;8.90;99.90;;;;;;5106273;28;20035;-57
2021/05/02 07:54:58;;;;;;;20.02;4.40;;;9.00;99.90;;;;;;5110762;28;20036;-56
2021/05/02 07:57:24;;;;;;;20.30;3.60;;;8.90;99.90;;;;;;5111158;28;20031;-57
2021/05/02 07:59:50;;;;;;;9.15;3.25;;;9.00;99.90;;;;;;5088701;28;20032;-56
2021/05/02 08:05:00;;;;;;;;;;;9.10;99.90;;;;;;5122916;27;20047;-56
2021/05/02 08:07:26;;;;;;;6.28;2.78;;;9.10;99.90;;;;;;5128102;27;19914;-53
2021/05/02 08:09:51;;;;;;;7.60;3.47;;;9.20;99.90;;;;;;5126495;27;20110;-55
2021/05/02 08:12:17;;;;;;;9.43;3.45;;;9.30;99.90;;;;;;5130780;27;20400;-54
2021/05/02 08:14:43;;;;;;;8.55;3.13;;;9.40;99.90;;;;;;5112558;27;20024;-57
2021/05/02 08:17:09;;;;;;;7.35;2.45;;;9.50;99.90;;;;;;5117776;27;20023;-56
2021/05/02 08:19:35;;;;;;;9.27;3.58;;;9.40;99.90;;;;;;5112400;27;20020;-58
2021/05/02 08:22:02;;;;;;;7.22;2.90;;;9.20;99.90;;;;;;5113495;27;20024;-53
2021/05/02 08:24:29;;;;;;;7.68;2.47;;;9.10;99.90;;;;;;5110146;27;20031;-56
2021/05/02 08:26:55;;;;;;;6.88;2.33;;;9.10;99.90;;;;;;5117248;27;20019;-57
2021/05/02 08:29:21;;;;;;;4.25;2.30;;;9.10;99.90;;;;;;5113081;27;20071;-54
2021/05/02 08:31:46;;;;;;;6.15;2.53;;;9.20;99.90;;;;;;5096419;28;20028;-55
2021/05/02 08:34:12;;;;;;;7.28;2.65;;;9.30;99.90;;;;;;5114624;27;20024;-57
2021/05/02 08:36:37;;;;;;;16.75;3.15;;;9.30;99.90;;;;;;5119427;27;20461;-54
2021/05/02 08:39:03;;;;;;;11.38;3.85;;;9.30;99.90;;;;;;5113882;27;20024;-56
2021/05/02 08:41:29;;;;;;;7.57;3.28;;;9.20;99.90;;;;;;5111626;27;20026;-55
2021/05/02 08:43:57;;;;;;;12.45;3.08;;;9.20;99.90;;;;;;5113894;27;20102;-55
2021/05/02 08:46:24;;;;;;;6.82;2.75;;;9.30;99.90;;;;;;5112941;27;20120;-56
2021/05/02 08:48:50;;;;;;;6.75;2.80;;;9.30;99.90;;;;;;5111902;27;20024;-53
2021/05/02 08:51:15;;;;;;;8.35;2.88;;;9.60;99.90;;;;;;5112571;27;20072;-56
2021/05/02 08:53:41;;;;;;;11.80;2.65;;;9.70;99.90;;;;;;5116947;27;20027;-50
2021/05/02 08:56:07;;;;;;;6.93;2.60;;;9.90;99.90;;;;;;5112885;27;20050;-52
2021/05/02 08:58:33;;;;;;;6.95;2.33;;;10.00;99.90;;;;;;5101396;28;20015;-52
2021/05/02 09:01:01;;;;;;;8.13;2.72;;;10.00;99.90;;;;;;5112236;27;20020;-50
2021/05/02 09:03:40;;;;;;;10.65;2.80;;;9.70;99.90;;;;;;5112459;27;20103;-50
2021/05/02 09:06:28;;;;;;;4.25;2.15;;;9.70;99.90;;;;;;5115914;27;20092;-50
2021/05/02 09:09:01;;;;;;;9.60;2.95;;;9.70;99.90;;;;;;5113755;27;20019;-56
2021/05/02 09:11:41;;;;;;;10.57;3.03;;;9.60;99.90;;;;;;5102310;27;20590;-51
2021/05/02 09:14:27;;;;;;;9.20;3.28;;;9.60;99.90;;;;;;5106307;27;22392;-54
2021/05/02 09:16:57;;;;;;;5.93;2.88;;;9.70;99.90;;;;;;5105017;27;20540;-51
2021/05/02 09:19:25;;;;;;;7.10;3.83;;;9.90;99.90;;;;;;5103523;27;20030;-52
2021/05/02 09:21:51;;;;;;;14.07;3.33;;;10.00;99.90;;;;;;5105507;27;20103;-56
2021/05/02 09:24:31;;;;;;;10.00;3.17;;;10.20;99.90;;;;;;5105859;27;20023;-51
2021/05/02 09:27:07;;;;;;;5.55;2.20;;;10.40;99.90;;;;;;5108320;27;20087;-52
2021/05/02 09:29:34;;;;;;;5.53;3.15;;;10.70;99.90;;;;;;5108246;27;20027;-55
2021/05/02 09:32:00;;;;;;;11.40;3.30;;;11.00;99.90;;;;;;5102410;27;20031;-51
2021/05/02 09:34:27;;;;;;;9.82;3.58;;;11.20;99.90;;;;;;5100557;27;20051;-53
2021/05/02 09:36:57;;;;;;;10.18;3.00;;;11.20;99.90;;;;;;5103369;27;20051;-54
2021/05/02 09:39:50;;;;;;;8.23;3.17;;;11.00;99.90;;;;;;5101428;27;20019;-53
2021/05/02 09:42:24;;;;;;;11.13;3.58;;;10.60;99.90;;;;;;5102516;27;20023;-56
2021/05/02 09:44:58;;;;;;;13.30;4.65;;;10.30;99.90;;;;;;5092869;28;20163;-54
2021/05/02 09:47:34;;;;;;;9.70;3.22;;;10.10;99.90;;;;;;5106012;28;20024;-54
2021/05/02 09:50:17;;;;;;;7.32;3.38;;;10.10;99.90;;;;;;5110309;28;20362;-54
2021/05/02 09:53:11;;;;;;;7.28;3.15;;;10.30;99.90;;;;;;5102093;27;20038;-55
2021/05/02 09:55:43;;;;;;;10.88;3.38;;;10.70;99.90;;;;;;5109443;27;20034;-51
2021/05/02 09:58:22;;;;;;;11.13;3.40;;;11.10;99.90;;;;;;5109562;28;20138;-51
2021/05/02 10:00:50;;;;;;;6.13;3.03;;;10.80;99.90;;;;;;5110458;28;20539;-54
2021/05/02 10:03:20;;;;;;;11.23;3.70;;;10.80;99.90;;;;;;5107859;28;20054;-57
2021/05/02 10:06:03;;;;;;;6.30;3.28;;;10.50;99.90;;;;;;5104951;27;20709;-55
2021/05/02 10:08:30;;;;;;;7.68;4.07;;;10.50;99.90;;;;;;5111133;27;20509;-54
2021/05/02 10:10:59;;;;;;;8.35;2.88;;;10.50;99.90;;;;;;5108423;28;20027;-54
2021/05/02 10:13:25;;;;;;;12.30;3.60;;;10.60;99.90;;;;;;5110533;28;20485;-54
2021/05/02 10:15:51;;;;;;;4.60;3.10;;;10.80;99.90;;;;;;5110545;28;20118;-55
2021/05/02 10:18:17;;;;;;;6.13;2.72;;;10.90;99.90;;;;;;5107035;27;20126;-56
2021/05/02 10:20:49;;;;;;;7.40;3.22;;;10.70;99.90;;;;;;5105866;28;21301;-53
2021/05/02 10:23:15;;;;;;;7.55;2.85;;;10.80;99.90;;;;;;5093283;28;20804;-56
2021/05/02 10:25:42;;;;;;;9.60;3.70;;;10.60;99.90;;;;;;5092991;28;20023;-53
2021/05/02 10:28:08;;;;;;;12.38;3.58;;;10.60;99.90;;;;;;5111567;28;20374;-53
2021/05/02 10:30:39;;;;;;;10.93;2.80;;;10.60;99.90;;;;;;5110741;28;20031;-52
2021/05/02 10:33:09;;;;;;;5.20;3.10;;;10.80;99.90;;;;;;5116412;27;20077;-51
2021/05/02 10:35:43;;;;;;;7.93;3.80;;;11.00;99.90;;;;;;5109697;28;20114;-55
2021/05/02 10:38:10;;;;;;;4.75;2.53;;;11.20;99.90;;;;;;5110471;28;20481;-53
2021/05/02 10:40:37;;;;;;;5.82;2.30;;;11.30;99.90;;;;;;5109901;28;20066;-56
2021/05/02 10:43:06;;;;;;;3.40;2.10;;;11.00;99.90;;;;;;5109523;28;20077;-53
2021/05/02 10:45:45;;;;;;;5.45;2.30;;;10.90;99.90;;;;;;5111720;27;20107;-56
2021/05/02 10:48:14;;;;;;;9.82;2.55;;;11.00;99.90;;;;;;5109438;28;20035;-55
2021/05/02 10:50:45;;;;;;;4.57;2.20;;;11.40;99.90;;;;;;5109951;28;20043;-54
2021/05/02 10:53:16;;;;;;;7.93;2.17;;;12.10;99.90;;;;;;5110301;27;20497;-54
2021/05/02 10:56:04;;;;;;;2.95;1.95;;;12.30;99.90;;;;;;5109960;28;20042;-53
2021/05/02 10:58:31;;;;;;;4.82;2.33;;;12.10;99.90;;;;;;5109526;28;20102;-52
2021/05/02 11:01:03;;;;;;;7.75;2.20;;;11.90;99.90;;;;;;5106378;27;20026;-55
2021/05/02 11:03:53;;;;;;;8.70;2.55;;;11.70;99.90;;;;;;5105377;27;20035;-52
2021/05/02 11:06:37;;;;;;;7.15;2.63;;;11.60;99.90;;;;;;5084288;28;20562;-53
2021/05/02 11:09:04;;;;;;;9.70;3.10;;;11.50;99.90;;;;;;5107046;27;20027;-52
2021/05/02 11:11:38;;;;;;;4.25;2.63;;;11.50;99.90;;;;;;5108213;28;20087;-54
2021/05/02 11:14:10;;;;;;;7.28;2.63;;;11.50;99.90;;;;;;5108276;28;20031;-54
2021/05/02 11:16:42;;;;;;;4.55;2.03;;;11.40;99.90;;;;;;5104499;28;20027;-50
2021/05/02 11:19:13;;;;;;;11.57;2.45;;;11.40;99.90;;;;;;5108418;28;20016;-57
2021/05/02 11:24:14;;;;;;;;;;;11.40;99.90;;;;;;5110902;27;20080;-54
2021/05/02 11:32:27;;;;;;;9.18;2.70;;;11.80;99.90;;;;;;5109880;28;20042;-53
2021/05/02 11:34:57;;;;;;;7.97;3.40;;;11.90;99.90;;;;;;5105667;28;21110;-53
2021/05/02 11:37:50;;;;;;;5.43;2.75;;;12.10;99.90;;;;;;5108413;28;20020;-54
2021/05/02 11:43:01;;;;;;;;;;;12.20;99.90;;;;;;5105944;28;20400;-55
2021/05/02 11:45:40;;;;;;;9.15;2.97;;;12.20;99.90;;;;;;5106055;28;19912;-52
2021/05/02 11:48:07;;;;;;;10.95;2.70;;;12.10;99.90;;;;;;5106471;28;20106;-55
2021/05/02 11:50:40;;;;;;;11.65;2.88;;;11.80;99.90;;;;;;5103170;28;20070;-54
2021/05/02 11:53:06;;;;;;;4.75;2.60;;;11.40;99.90;;;;;;5106923;28;20098;-51
2021/05/02 11:55:40;;;;;;;5.15;2.67;;;11.20;99.90;;;;;;5106720;28;20114;-51
2021/05/02 11:58:16;;;;;;;7.95;2.78;;;11.10;99.90;;;;;;5107781;28;20110;-54
2021/05/02 12:00:47;;;;;;;7.65;2.70;;;11.20;99.90;;;;;;5104335;28;20552;-53
2021/05/02 12:03:18;;;;;;;5.32;2.42;;;11.20;99.90;;;;;;5105620;28;20020;-53
2021/05/02 12:05:51;;;;;;;10.30;2.72;;;11.30;99.90;;;;;;5107123;28;20512;-51
2021/05/02 12:08:20;;;;;;;3.80;2.35;;;11.30;99.90;;;;;;5105835;28;20093;-56
2021/05/02 12:10:50;;;;;;;8.23;2.20;;;11.30;99.90;;;;;;5108243;28;20024;-55
2021/05/02 12:13:37;;;;;;;11.30;2.65;;;11.30;99.90;;;;;;5105292;28;20034;-52
2021/05/02 12:16:28;;;;;;;7.13;2.63;;;11.30;99.90;;;;;;5109229;28;20473;-58
2021/05/02 12:19:03;;;;;;;6.47;2.50;;;11.30;99.90;;;;;;5108275;28;20020;-56
2021/05/02 12:21:33;;;;;;;5.57;2.50;;;11.40;99.90;;;;;;5104922;28;20035;-56
2021/05/02 12:24:17;;;;;;;5.32;2.30;;;11.50;99.90;;;;;;5106403;28;20028;-55
2021/05/02 12:26:55;;;;;;;8.18;3.10;;;11.60;99.90;;;;;;5109677;28;20019;-55
2021/05/02 12:29:33;;;;;;;5.07;1.92;;;11.90;99.90;;;;;;5105234;28;20066;-56
2021/05/02 12:32:07;;;;;;;3.65;1.90;;;12.00;99.90;;;;;;5107979;28;20117;-55
2021/05/02 12:34:37;;;;;;;3.42;2.00;;;12.20;99.90;;;;;;5113933;27;20034;-52
2021/05/02 12:37:12;;;;;;;5.07;2.00;;;12.10;99.90;;;;;;5110981;28;20027;-57
2021/05/02 12:39:39;;;;;;;4.15;1.98;;;12.30;99.90;;;;;;5110295;28;20024;-55
2021/05/02 12:42:05;;;;;;;6.43;2.28;;;12.40;99.90;;;;;;5114275;27;20027;-52
2021/05/02 12:44:32;;;;;;;3.53;1.70;;;12.50;99.90;;;;;;5112340;27;20031;-57
2021/05/02 12:47:00;;;;;;;5.00;2.65;;;12.40;99.90;;;;;;5114179;27;20032;-51
2021/05/02 12:49:28;;;;;;;8.85;2.03;;;12.40;99.90;;;;;;5109158;28;20026;-54
2021/05/02 12:51:59;;;;;;;6.18;2.08;;;12.30;99.90;;;;;;5110431;28;20030;-51
2021/05/02 12:54:26;;;;;;;5.28;2.70;;;12.40;99.90;;;;;;5110938;28;21539;-53
2021/05/02 12:57:09;;;;;;;24.02;2.88;;;12.40;99.90;;;;;;5112111;27;20436;-52
2021/05/02 13:02:12;;;;;;;4.68;1.85;;;12.10;99.90;;;;;;5112047;27;20080;-52
2021/05/02 13:04:48;;;;;;;11.68;2.38;;;12.20;99.90;;;;;;5109096;28;20114;-54
2021/05/02 13:07:15;;;;;;;3.97;1.90;;;12.10;99.90;;;;;;5111659;27;20019;-55
2021/05/02 13:09:43;;;;;;;3.17;1.65;;;12.00;99.90;;;;;;5108830;28;20546;-56